Time;durP1;ratioP1;P1;durP2;ratioP2;P2;SDS_P1;SDS_P2;PMS_P1;PMS_P2;Temp;Humidity;BMP_temperature;BMP_pressure;BME280_temperature;BME280_humidity;BME280_pressure;Samples;Min_cycle;Max_cycle;Signal;HPM_P1;HPM_P2
2022/01/10 00:02:12;;;;;;;24.90;12.40;;;;;;;0.96;74.10;97866.69;218180;1279;25444;-70
2022/01/10 00:07:38;;;;;;;26.20;14.30;;;;;;;1.00;74.08;97865.35;218012;1279;24350;-70
2022/01/10 00:26:29;;;;;;;;;;;;;;;;;;;;;
2022/01/10 00:32:41;;;;;;;24.90;12.60;;;;;;;1.01;74.15;97885.88;219223;1279;22576;-70
2022/01/10 00:39:16;;;;;;;26.80;12.90;;;;;;;1.00;74.09;97895.35;218277;1279;25458;-69
2022/01/10 01:17:07;;;;;;;;;;;;;;;;;;;;;
2022/01/10 01:30:27;;;;;;;25.40;13.40;;;;;;;0.83;75.64;97941.27;218351;1279;22629;-69
2022/01/10 01:43:40;;;;;;;24.00;13.30;;;;;;;0.79;75.96;97953.88;218566;1279;24534;-70
2022/01/10 01:50:01;;;;;;;;;;;;;;;;;;;;;
2022/01/10 01:56:02;;;;;;;23.30;12.90;;;;;;;0.78;76.46;97964.20;219450;1279;25424;-69
2022/01/10 02:09:05;;;;;;;;;;;;;;;;;;;;;
2022/01/10 02:22:13;;;;;;;21.70;12.00;;;;;;;0.80;76.77;97992.86;217682;1279;22576;-69
2022/01/10 02:28:00;;;;;;;24.50;13.80;;;;;;;0.80;76.75;97996.03;218287;1279;22577;-70
2022/01/10 02:34:07;;;;;;;;;;;;;;;;;;;;;
2022/01/10 02:40:13;;;;;;;;;;;;;;;;;;;;;
2022/01/10 02:52:34;;;;;;;23.00;12.10;;;;;;;0.91;77.06;98010.52;218477;1279;24266;-70
2022/01/10 02:58:06;;;;;;;;;;;;;;;;;;;;;
2022/01/10 03:04:23;;;;;;;;;;;;;;;;;;;;;
2022/01/10 03:11:01;;;;;;;26.80;13.50;;;;;;;0.96;76.99;98028.36;218444;1279;25616;-70
2022/01/10 03:16:47;;;;;;;24.90;13.10;;;;;;;0.97;77.07;98034.48;218266;1279;22600;-69
2022/01/10 03:22:34;;;;;;;;;;;;;;;;;;;;;
2022/01/10 03:27:53;;;;;;;23.30;12.20;;;;;;;0.98;77.39;98042.60;218534;1279;22586;-69
2022/01/10 03:33:32;;;;;;;21.10;11.90;;;;;;;0.95;77.20;98049.80;218439;1279;23585;-70
2022/01/10 03:38:45;;;;;;;;;;;;;;;;;;;;;
2022/01/10 03:44:29;;;;;;;23.30;12.80;;;;;;;0.94;77.45;98061.56;218333;1279;24132;-70
2022/01/10 03:51:11;;;;;;;22.40;13.70;;;;;;;0.92;77.61;98068.38;218610;1279;26451;-70
2022/01/10 04:03:22;;;;;;;;;;;;;;;;;;;;;
2022/01/10 04:09:28;;;;;;;24.00;12.80;;;;;;;0.93;77.85;98089.77;218614;1279;22588;-70
2022/01/10 04:14:37;;;;;;;25.90;13.80;;;;;;;0.88;77.59;98096.07;218320;1279;22730;-69
2022/01/10 04:20:20;;;;;;;22.80;14.10;;;;;;;0.87;77.95;98101.31;218567;1279;22570;-70
2022/01/10 04:25:51;;;;;;;24.50;13.10;;;;;;;0.87;77.82;98107.17;218460;1279;22600;-69
2022/01/10 04:31:09;;;;;;;23.70;13.00;;;;;;;0.91;78.30;98108.34;219322;1279;22599;-69
2022/01/10 04:36:25;;;;;;;26.80;13.30;;;;;;;0.95;78.49;98114.27;218491;1279;22720;-69
2022/01/10 04:41:46;;;;;;;23.60;13.50;;;;;;;0.95;78.32;98123.55;218446;1279;22621;-70
2022/01/10 04:47:10;;;;;;;24.30;13.00;;;;;;;0.95;78.43;98134.84;218487;1279;24395;-70
2022/01/10 04:52:18;;;;;;;25.00;14.50;;;;;;;0.93;78.30;98143.40;218013;1279;22795;-69
2022/01/10 04:58:05;;;;;;;;;;;;;;;;;;;;;
2022/01/10 05:03:08;;;;;;;29.10;15.10;;;;;;;0.76;78.16;98158.77;218325;1281;22560;-70
2022/01/10 05:08:24;;;;;;;32.10;17.40;;;;;;;0.71;78.34;98169.68;218457;1279;24236;-69
2022/01/10 05:13:30;;;;;;;35.60;19.00;;;;;;;0.66;78.50;98178.88;218341;1280;24229;-72
2022/01/10 05:18:33;;;;;;;38.20;20.20;;;;;;;0.60;78.31;98187.31;218652;1279;22882;-69
2022/01/10 05:23:42;;;;;;;49.80;24.40;;;;;;;0.51;78.27;98196.73;218525;1279;24831;-70
2022/01/10 05:28:59;;;;;;;50.10;24.20;;;;;;;0.50;78.24;98206.44;218349;1281;24457;-71
2022/01/10 05:34:05;;;;;;;50.50;25.20;;;;;;;0.47;78.18;98211.09;218789;1279;24935;-69
2022/01/10 05:39:08;;;;;;;55.90;27.30;;;;;;;0.42;78.05;98222.64;218535;1280;22573;-70
2022/01/10 05:44:42;;;;;;;52.70;28.00;;;;;;;0.43;78.49;98232.61;218480;1281;25280;-69
2022/01/10 05:49:48;;;;;;;52.70;28.30;;;;;;;0.41;78.22;98244.06;218928;1279;24794;-69
2022/01/10 05:55:15;;;;;;;64.90;30.90;;;;;;;0.32;78.24;98254.61;218608;1279;23002;-69
2022/01/10 06:00:26;;;;;;;61.70;30.50;;;;;;;0.22;77.96;98263.37;218487;1280;22595;-69
2022/01/10 06:06:12;;;;;;;69.00;32.50;;;;;;;0.12;77.90;98272.86;218659;1279;22615;-70
2022/01/10 06:11:26;;;;;;;68.90;34.40;;;;;;;0.02;77.79;98279.40;218739;1279;25371;-69
2022/01/10 06:16:50;;;;;;;71.60;36.20;;;;;;;-0.12;77.81;98287.30;218679;1281;25378;-70
2022/01/10 06:22:25;;;;;;;71.80;35.90;;;;;;;-0.25;78.35;98302.79;218696;1280;24843;-69
2022/01/10 06:28:11;;;;;;;75.10;36.20;;;;;;;-0.34;78.53;98314.36;218804;1281;22754;-70
2022/01/10 06:34:00;;;;;;;79.70;37.40;;;;;;;-0.44;78.58;98320.25;218512;1281;22548;-69
2022/01/10 06:40:34;;;;;;;72.60;35.10;;;;;;;-0.52;78.77;98334.86;219397;1280;22767;-69
2022/01/10 06:58:09;;;;;;;97.30;44.70;;;;;;;-0.63;78.78;98370.69;219873;1279;22779;-70
2022/01/10 07:03:44;;;;;;;;;;;;;;;;;;;;;
2022/01/10 07:09:46;;;;;;;;;;;;;;;;;;;;;
2022/01/10 07:15:26;;;;;;;122.70;44.60;;;;;;;-0.76;78.94;98415.23;219810;1280;22656;-71
2022/01/10 07:22:07;;;;;;;92.40;40.10;;;;;;;-0.79;78.93;98418.43;219713;1281;25406;-71
2022/01/10 07:27:25;;;;;;;98.60;42.60;;;;;;;-0.87;78.64;98433.41;219353;1281;22618;-71
2022/01/10 07:38:18;;;;;;;;;;;;;;;;;;;;;
2022/01/10 07:43:41;;;;;;;88.60;39.70;;;;;;;-0.91;78.81;98471.70;218043;1281;23040;-69
2022/01/10 07:48:47;;;;;;;88.70;41.90;;;;;;;-0.89;78.72;98479.73;217873;1279;22570;-69
2022/01/10 07:54:13;;;;;;;80.80;35.80;;;;;;;-0.87;78.26;98490.64;217938;1280;23957;-68
2022/01/10 07:59:38;;;;;;;90.30;38.70;;;;;;;-0.82;77.88;98501.30;218313;1281;24268;-71
2022/01/10 08:05:04;;;;;;;74.70;35.80;;;;;;;-0.60;78.04;98510.73;220171;1279;22728;-69
2022/01/10 08:10:29;;;;;;;73.50;33.40;;;;;;;-0.52;77.45;98521.05;218164;1279;22534;-68
2022/01/10 08:16:44;;;;;;;67.50;32.60;;;;;;;-0.51;77.05;98530.23;217950;1279;24288;-68
2022/01/10 08:23:41;;;;;;;;;;;;;;;;;;;;;
2022/01/10 08:29:41;;;;;;;;;;;;;;;;;;;;;
2022/01/10 08:35:31;;;;;;;63.60;32.00;;;;;;;-0.38;76.01;98563.43;218180;1279;24156;-70
2022/01/10 08:40:51;;;;;;;60.50;31.40;;;;;;;-0.32;75.58;98574.16;218161;1279;25641;-69
2022/01/10 08:46:41;;;;;;;64.50;30.20;;;;;;;-0.35;74.97;98582.05;218061;1278;25970;-69
2022/01/10 08:51:46;;;;;;;61.40;29.10;;;;;;;0.12;76.54;98594.39;218032;1279;22625;-69
2022/01/10 08:56:53;;;;;;;60.60;30.10;;;;;;;0.45;74.85;98601.10;218159;1279;22593;-68
2022/01/10 09:01:58;;;;;;;61.40;30.50;;;;;;;0.41;73.89;98609.63;218055;1279;22853;-69
2022/01/10 09:07:05;;;;;;;58.20;29.70;;;;;;;0.33;73.48;98616.64;217888;1279;22582;-70
2022/01/10 09:12:14;;;;;;;59.80;29.50;;;;;;;0.30;73.45;98626.29;218295;1279;22569;-69
2022/01/10 09:17:16;;;;;;;62.50;28.80;;;;;;;0.32;73.11;98632.67;218067;1279;22597;-69
2022/01/10 09:22:46;;;;;;;54.10;28.00;;;;;;;0.27;72.60;98640.88;218112;1279;22634;-69
2022/01/10 09:28:12;;;;;;;51.80;25.40;;;;;;;0.29;72.68;98648.88;218146;1279;25268;-69
2022/01/10 09:33:34;;;;;;;46.20;23.20;;;;;;;0.35;72.50;98654.84;218168;1279;25326;-69
2022/01/10 09:38:40;;;;;;;43.50;21.90;;;;;;;0.41;71.85;98665.19;218450;1279;22550;-70
2022/01/10 09:43:53;;;;;;;44.40;21.50;;;;;;;0.41;71.74;98675.11;218240;1279;22550;-69
2022/01/10 09:48:59;;;;;;;41.50;20.70;;;;;;;0.45;71.47;98676.84;218100;1278;22725;-69
2022/01/10 09:54:53;;;;;;;42.20;21.30;;;;;;;0.51;70.82;98683.48;218132;1279;22661;-71
2022/01/10 10:00:20;;;;;;;39.00;19.00;;;;;;;0.53;70.22;98688.81;218028;1279;22588;-68
2022/01/10 10:05:23;;;;;;;38.10;19.50;;;;;;;0.58;70.12;98695.26;218116;1279;22762;-69
2022/01/10 10:10:28;;;;;;;38.00;20.60;;;;;;;0.58;69.92;98705.27;218069;1279;25331;-69
2022/01/10 10:15:32;;;;;;;40.90;21.00;;;;;;;0.58;69.68;98707.85;218287;1277;22640;-69
2022/01/10 10:20:38;;;;;;;38.40;20.30;;;;;;;0.58;69.41;98711.38;218042;1279;22586;-69
2022/01/10 10:25:57;;;;;;;33.30;18.20;;;;;;;0.66;69.21;98710.85;218165;1279;22593;-69
2022/01/10 10:31:03;;;;;;;39.90;20.50;;;;;;;0.71;68.87;98714.84;218118;1279;22597;-69
2022/01/10 10:36:11;;;;;;;35.80;19.70;;;;;;;0.81;68.68;98716.31;218069;1279;22677;-69
2022/01/10 10:46:28;;;;;;;34.00;19.20;;;;;;;0.99;68.28;98733.46;218071;1278;25462;-68
2022/01/10 10:51:51;;;;;;;34.70;18.20;;;;;;;1.11;68.15;98736.27;218002;1280;25960;-68
2022/01/10 10:57:04;;;;;;;33.70;18.90;;;;;;;1.21;67.51;98745.74;218248;1279;25486;-69
2022/01/10 11:02:23;;;;;;;36.80;20.60;;;;;;;1.28;67.42;98753.14;218045;1279;23128;-69
2022/01/10 11:07:39;;;;;;;36.20;18.90;;;;;;;1.41;67.34;98757.25;218077;1279;23857;-70
2022/01/10 11:12:57;;;;;;;25.70;15.40;;;;;;;1.53;66.59;98766.41;219718;1279;25377;-68
2022/01/10 11:18:32;;;;;;;31.70;17.00;;;;;;;1.63;66.69;98774.53;219688;1279;22667;-70
2022/01/10 11:24:16;;;;;;;31.60;18.40;;;;;;;1.79;66.52;98776.54;217668;1281;24188;-69
2022/01/10 11:29:19;;;;;;;34.00;19.70;;;;;;;1.97;66.28;98782.79;218145;1279;22595;-69
2022/01/10 11:34:30;;;;;;;35.70;20.70;;;;;;;2.15;65.86;98783.80;219426;1279;22750;-69
2022/01/10 11:39:36;;;;;;;55.50;27.90;;;;;;;2.16;64.81;98800.46;217924;1279;22696;-69
2022/01/10 11:45:07;;;;;;;38.30;22.00;;;;;;;2.09;64.90;98809.66;217674;1279;25423;-69
2022/01/10 11:50:40;;;;;;;44.20;23.40;;;;;;;1.98;64.54;98815.45;218462;1279;22741;-69
2022/01/10 11:55:57;;;;;;;38.50;22.10;;;;;;;1.80;64.62;98827.85;218038;1279;22661;-69
2022/01/10 12:01:12;;;;;;;32.60;18.10;;;;;;;1.68;64.71;98835.55;218293;1279;25465;-70
2022/01/10 12:07:11;;;;;;;34.20;18.10;;;;;;;1.45;64.45;98839.77;218534;1279;25408;-68
2022/01/10 12:12:50;;;;;;;29.10;16.00;;;;;;;1.21;65.20;98848.50;218287;1279;22749;-69
2022/01/10 12:18:04;;;;;;;26.40;16.20;;;;;;;1.05;65.50;98853.63;218458;1279;22560;-71
2022/01/10 12:23:45;;;;;;;26.80;14.80;;;;;;;0.83;65.82;98868.04;218268;1279;22592;-70
2022/01/10 12:29:11;;;;;;;30.90;16.90;;;;;;;0.59;66.44;98873.96;218080;1279;22579;-70
2022/01/10 12:35:35;;;;;;;27.00;14.00;;;;;;;0.43;67.13;98878.73;218092;1279;22750;-69
2022/01/10 12:40:57;;;;;;;23.60;12.80;;;;;;;0.35;67.36;98889.42;218411;1279;25362;-71
2022/01/10 12:46:34;;;;;;;;;;;;;;;;;;;;;
2022/01/10 12:52:12;;;;;;;28.60;15.10;;;;;;;0.37;67.78;98911.14;218183;1279;24417;-69
2022/01/10 12:57:43;;;;;;;34.50;16.30;;;;;;;0.29;68.07;98923.14;218379;1279;24345;-68
2022/01/10 13:16:48;;;;;;;23.10;12.10;;;;;;;0.02;68.82;98966.89;218836;1279;22617;-69
2022/01/10 13:23:21;;;;;;;24.00;13.50;;;;;;;-0.16;68.72;98984.56;217976;1281;22717;-68
2022/01/10 13:30:30;;;;;;;28.80;14.70;;;;;;;-0.30;69.37;98999.10;218253;1279;22598;-69
2022/01/10 13:35:31;;;;;;;31.50;16.30;;;;;;;-0.43;69.61;99017.41;218420;1279;22535;-68
2022/01/10 13:40:48;;;;;;;28.50;16.40;;;;;;;-0.48;70.40;99029.17;218273;1279;22599;-70
2022/01/10 13:46:32;;;;;;;;;;;;;;;;;;;;;
2022/01/10 13:52:30;;;;;;;33.70;16.70;;;;;;;-0.79;70.46;99061.75;218281;1279;22597;-68
2022/01/10 14:04:56;;;;;;;;;;;;;;;-1.00;71.22;99087.30;218182;1279;22551;-69
2022/01/10 14:09:58;;;;;;;20.10;10.40;;;;;;;-1.05;71.76;99099.96;218128;1279;25647;-69
2022/01/10 14:15:37;;;;;;;25.30;13.90;;;;;;;-1.05;71.88;99113.52;218313;1279;25383;-70
2022/01/10 14:21:14;;;;;;;29.00;15.00;;;;;;;-1.04;72.24;99124.80;218407;1279;22545;-68
2022/01/10 14:26:42;;;;;;;35.60;15.80;;;;;;;-1.01;72.17;99135.35;218495;1279;22578;-68
2022/01/10 14:32:06;;;;;;;30.20;15.40;;;;;;;-1.02;72.27;99143.09;217992;1278;23937;-68
2022/01/10 14:37:34;;;;;;;30.80;13.90;;;;;;;-1.02;72.48;99152.65;218083;1279;23806;-69
2022/01/10 14:43:48;;;;;;;27.60;13.90;;;;;;;-0.99;72.75;99155.75;218167;1279;22564;-69
2022/01/10 14:49:34;;;;;;;;;;;;;;;;;;;;;
2022/01/10 14:54:39;;;;;;;23.40;12.90;;;;;;;-0.86;72.75;99179.26;218231;1279;22554;-69
2022/01/10 14:59:55;;;;;;;27.80;14.10;;;;;;;-0.86;72.91;99190.26;218167;1279;24162;-70
2022/01/10 15:05:24;;;;;;;23.80;12.60;;;;;;;-0.84;72.92;99198.71;218236;1279;22565;-67
2022/01/10 15:10:54;;;;;;;25.50;13.10;;;;;;;-0.86;73.09;99204.70;218138;1279;22922;-69
2022/01/10 15:16:24;;;;;;;23.80;12.60;;;;;;;-0.84;73.42;99213.20;218693;1279;25476;-71
2022/01/10 15:22:12;;;;;;;26.70;14.20;;;;;;;-0.85;73.42;99218.55;218347;1279;24242;-69
2022/01/10 15:27:38;;;;;;;29.40;14.30;;;;;;;-0.84;73.24;99226.23;218423;1279;23322;-70
2022/01/10 15:32:43;;;;;;;24.60;12.50;;;;;;;-0.86;73.46;99232.06;218410;1279;25429;-69
2022/01/10 15:37:45;;;;;;;25.20;13.70;;;;;;;-0.87;73.77;99245.79;218507;1279;22889;-69
2022/01/10 15:43:01;;;;;;;25.40;12.70;;;;;;;-0.87;73.37;99263.91;218621;1279;22560;-69
2022/01/10 15:48:50;;;;;;;21.10;11.60;;;;;;;-0.88;73.77;99280.51;218427;1279;22739;-70
2022/01/10 15:53:58;;;;;;;24.00;11.70;;;;;;;-0.88;73.85;99286.09;219548;1279;22562;-68
2022/01/10 15:59:00;;;;;;;24.90;13.20;;;;;;;-0.87;74.07;99295.64;219356;1279;22673;-69
2022/01/10 16:04:03;;;;;;;27.50;13.20;;;;;;;-0.92;73.88;99304.58;219349;1279;25278;-69
2022/01/10 16:09:05;;;;;;;25.00;12.10;;;;;;;-0.94;74.06;99317.71;218448;1279;24802;-69
2022/01/10 16:14:08;;;;;;;29.30;15.90;;;;;;;-0.95;74.01;99322.25;218590;1279;24256;-70
2022/01/10 16:19:35;;;;;;;26.00;13.00;;;;;;;-0.99;74.36;99329.70;218550;1279;22730;-70
2022/01/10 16:24:46;;;;;;;34.60;17.30;;;;;;;-1.02;74.47;99348.58;218373;1279;22715;-69
2022/01/10 16:30:03;;;;;;;29.40;14.20;;;;;;;-1.07;74.61;99359.73;218484;1279;22590;-68
2022/01/10 16:35:09;;;;;;;31.20;15.60;;;;;;;-1.10;74.73;99366.84;218476;1279;25401;-68
2022/01/10 16:40:14;;;;;;;32.80;15.00;;;;;;;-1.19;74.88;99379.36;218549;1278;22566;-70
2022/01/10 16:45:29;;;;;;;37.30;17.60;;;;;;;-1.26;74.96;99387.73;218773;1279;22761;-70
2022/01/10 16:50:44;;;;;;;27.10;14.10;;;;;;;-1.31;75.15;99395.55;218670;1279;24293;-69
2022/01/10 16:55:55;;;;;;;27.60;13.00;;;;;;;-1.35;75.06;99404.77;218379;1279;24407;-69
2022/01/10 17:01:00;;;;;;;31.80;14.60;;;;;;;-1.42;75.29;99406.39;219540;1279;22599;-69
2022/01/10 17:06:15;;;;;;;26.90;13.30;;;;;;;-1.45;75.28;99414.61;218510;1278;22617;-70
2022/01/10 17:12:04;;;;;;;23.50;11.00;;;;;;;-1.49;75.64;99415.11;218435;1279;22575;-70
2022/01/10 17:17:10;;;;;;;21.30;11.70;;;;;;;-1.51;75.44;99421.09;218268;1279;22728;-70
2022/01/10 17:22:42;;;;;;;21.70;10.70;;;;;;;-1.51;75.85;99430.04;218321;1279;25522;-69
2022/01/10 17:28:45;;;;;;;35.70;16.90;;;;;;;-1.45;75.86;99437.70;218621;1279;22564;-69
2022/01/10 17:33:55;;;;;;;26.50;13.50;;;;;;;-1.43;75.90;99449.36;218608;1279;22574;-69
2022/01/10 17:39:47;;;;;;;28.80;14.30;;;;;;;-1.48;75.93;99462.95;218447;1279;22789;-70
2022/01/10 17:45:08;;;;;;;30.90;14.00;;;;;;;-1.51;75.86;99469.60;218427;1279;24236;-70
2022/01/10 17:50:37;;;;;;;;;;;;;;;;;;;;;
2022/01/10 17:56:12;;;;;;;29.50;14.10;;;;;;;-1.43;76.04;99491.38;218815;1279;22639;-69
2022/01/10 18:01:25;;;;;;;30.70;15.30;;;;;;;-1.46;76.26;99506.64;218540;1279;25383;-69
2022/01/10 18:06:56;;;;;;;34.00;16.50;;;;;;;-1.47;76.25;99511.45;218520;1279;22607;-69
2022/01/10 18:12:40;;;;;;;32.00;15.50;;;;;;;-1.46;76.30;99521.55;218532;1279;22614;-70
2022/01/10 18:18:35;;;;;;;;;;;;;;;;;;;;;
2022/01/10 18:24:39;;;;;;;40.20;17.20;;;;;;;-1.50;76.56;99539.15;218310;1281;25338;-70
2022/01/10 18:30:11;;;;;;;34.40;15.60;;;;;;;-1.46;76.58;99540.71;218510;1279;22620;-69
2022/01/10 18:35:57;;;;;;;;;;;;;;;;;;;;;
2022/01/10 18:41:31;;;;;;;61.80;28.10;;;;;;;-1.38;76.95;99554.65;218449;1279;22554;-70
2022/01/10 18:46:54;;;;;;;28.20;15.10;;;;;;;-1.32;76.91;99559.02;218579;1279;25572;-70
2022/01/10 18:52:49;;;;;;;35.00;16.40;;;;;;;-1.32;76.98;99571.72;218466;1279;26603;-69
2022/01/10 18:58:09;;;;;;;33.60;15.40;;;;;;;-1.32;76.80;99581.63;218200;1281;24487;-69
2022/01/10 19:03:23;;;;;;;29.90;15.30;;;;;;;-1.26;77.00;99584.42;218629;1279;24442;-70
2022/01/10 19:08:43;;;;;;;;;;;;;;;;;;;;;
2022/01/10 19:14:13;;;;;;;36.20;18.20;;;;;;;-1.20;76.59;99597.04;218679;1279;22551;-69
2022/01/10 19:19:15;;;;;;;33.70;17.60;;;;;;;-1.22;76.46;99600.71;218517;1279;22575;-70
2022/01/10 19:24:18;;;;;;;37.10;18.10;;;;;;;-1.24;76.26;99599.73;218531;1279;25500;-70
2022/01/10 19:29:20;;;;;;;35.60;19.00;;;;;;;-1.24;76.38;99603.48;218418;1279;22576;-69
2022/01/10 19:34:31;;;;;;;36.90;18.10;;;;;;;-1.22;76.63;99613.83;218666;1279;22968;-70
2022/01/10 19:39:33;;;;;;;31.00;15.40;;;;;;;-1.23;76.25;99620.09;218322;1279;25284;-69
2022/01/10 19:44:35;;;;;;;31.50;16.50;;;;;;;-1.24;76.46;99625.98;218721;1279;23106;-70
2022/01/10 19:49:38;;;;;;;30.20;16.00;;;;;;;-1.27;76.35;99631.98;218480;1279;24384;-68
2022/01/10 19:54:49;;;;;;;32.10;17.50;;;;;;;-1.26;76.33;99635.79;218515;1278;25652;-69
2022/01/10 19:59:56;;;;;;;24.60;13.30;;;;;;;-1.25;76.35;99646.20;218614;1279;24172;-68
2022/01/10 20:05:07;;;;;;;26.60;13.70;;;;;;;-1.30;76.06;99655.36;218629;1279;24674;-69
2022/01/10 20:10:27;;;;;;;24.80;13.30;;;;;;;-1.34;76.09;99659.91;218726;1279;22715;-70
2022/01/10 20:15:30;;;;;;;22.60;12.40;;;;;;;-1.33;75.87;99670.15;218709;1279;24291;-69
2022/01/10 20:20:56;;;;;;;21.50;11.90;;;;;;;-1.31;76.20;99675.86;214838;1279;5513247;-68
2022/01/10 20:40:19;;;;;;;;;;;;;;;;;;;;;
2022/01/10 20:46:39;;;;;;;26.20;13.80;;;;;;;-1.17;76.15;99704.27;218652;1279;24259;-68
2022/01/10 20:53:31;;;;;;;;;;;;;;;;;;;;;
2022/01/10 20:59:39;;;;;;;32.60;16.10;;;;;;;-1.10;75.52;99727.95;219161;1281;25263;-70
2022/01/10 21:05:41;;;;;;;;;;;;;;;;;;;;;
2022/01/10 21:18:26;;;;;;;;;;;;;;;-1.10;75.18;99737.10;218384;1279;22537;-69
2022/01/10 21:24:06;;;;;;;24.80;12.90;;;;;;;-1.13;75.25;99745.89;218377;1281;22576;-70
2022/01/10 21:35:13;;;;;;;27.00;12.30;;;;;;;-1.14;74.66;99757.38;218692;1279;22550;-69
2022/01/10 21:41:12;;;;;;;30.50;14.50;;;;;;;-1.09;74.81;99769.95;218448;1279;22593;-70
2022/01/10 21:47:36;;;;;;;;;;;;;;;;;;;;;
2022/01/10 21:58:53;;;;;;;30.20;14.90;;;;;;;-1.13;74.57;99790.51;218172;1279;26099;-69
2022/01/10 22:05:13;;;;;;;;;;;;;;;;;;;;;
2022/01/10 22:10:59;;;;;;;32.70;15.10;;;;;;;-1.22;74.49;99807.22;218375;1281;25330;-68
2022/01/10 22:16:40;;;;;;;25.30;12.70;;;;;;;-1.28;73.93;99810.17;218573;1279;25256;-68
2022/01/10 22:22:26;;;;;;;24.00;12.80;;;;;;;-1.29;74.01;99818.55;218327;1279;22576;-69
2022/01/10 22:27:34;;;;;;;23.10;12.90;;;;;;;-1.27;73.84;99822.98;218422;1279;22648;-69
2022/01/10 22:33:19;;;;;;;23.90;12.60;;;;;;;-1.27;73.78;99830.09;218462;1279;22503;-69
2022/01/10 22:38:41;;;;;;;28.10;13.20;;;;;;;-1.36;73.31;99841.18;218375;1279;24423;-69
2022/01/10 22:50:07;;;;;;;24.70;12.00;;;;;;;-1.56;73.07;99850.33;218456;1279;25432;-70
2022/01/10 22:55:53;;;;;;;20.90;11.80;;;;;;;-1.69;72.82;99859.93;218429;1279;22550;-69
2022/01/10 23:01:57;;;;;;;25.30;11.00;;;;;;;-1.80;72.83;99868.96;218387;1279;22585;-70
2022/01/10 23:07:01;;;;;;;19.90;10.60;;;;;;;-1.88;72.52;99878.34;218402;1279;22938;-69
2022/01/10 23:12:21;;;;;;;22.10;11.20;;;;;;;-1.95;72.62;99890.61;218545;1279;22634;-70
2022/01/10 23:17:47;;;;;;;22.30;12.20;;;;;;;-1.94;72.61;99889.15;218507;1279;24301;-69
2022/01/10 23:24:13;;;;;;;21.30;11.70;;;;;;;-1.90;72.47;99893.23;218558;1279;26626;-69
2022/01/10 23:30:27;;;;;;;19.00;9.70;;;;;;;-1.85;72.41;99897.02;218438;1279;24240;-70
2022/01/10 23:35:38;;;;;;;16.30;9.30;;;;;;;-1.84;71.89;99903.05;218566;1279;22998;-69
2022/01/10 23:41:17;;;;;;;;;;;;;;;;;;;;;
2022/01/10 23:47:43;;;;;;;16.80;8.80;;;;;;;-1.95;71.07;99906.56;218417;1280;22948;-69
2022/01/10 23:53:56;;;;;;;14.70;8.00;;;;;;;-2.02;70.97;99912.64;219505;1279;22708;-70
2022/01/10 23:59:26;;;;;;;15.90;8.60;;;;;;;-2.03;70.93;99918.71;218565;1280;25726;-70
